createdAt,value
2017-09-08T00:02:22.515Z,66.90
2017-09-08T00:04:49.144Z,66.80
2017-09-08T00:07:15.794Z,66.80
2017-09-08T00:09:42.424Z,66.80
2017-09-08T00:14:52.607Z,66.60
2017-09-08T00:17:19.251Z,66.70
2017-09-08T00:19:45.880Z,66.80
2017-09-08T00:22:12.549Z,66.80
2017-09-08T00:24:39.569Z,66.70
2017-09-08T00:27:06.211Z,66.70
2017-09-08T00:29:32.864Z,66.70
2017-09-08T00:31:59.485Z,66.80
2017-09-08T00:34:26.158Z,66.80
2017-09-08T00:36:52.779Z,66.80
2017-09-08T00:39:19.429Z,66.80
2017-09-08T00:44:35.418Z,66.80
2017-09-08T00:47:02.039Z,66.80
2017-09-08T00:49:28.699Z,66.80
2017-09-08T00:51:55.327Z,66.80
2017-09-08T00:54:21.955Z,66.70
2017-09-08T00:56:48.600Z,66.60
2017-09-08T00:59:15.223Z,66.70
2017-09-08T01:01:41.869Z,66.70
2017-09-08T01:04:08.508Z,66.80
2017-09-08T01:06:35.151Z,66.80
2017-09-08T01:09:01.771Z,66.80
2017-09-08T01:14:17.628Z,66.80
2017-09-08T01:16:44.296Z,66.60
2017-09-08T01:19:10.919Z,66.80
2017-09-08T01:21:37.546Z,66.80
2017-09-08T01:24:04.192Z,66.70
2017-09-08T01:26:30.819Z,66.70
2017-09-08T01:28:57.467Z,66.70
2017-09-08T01:31:24.112Z,66.70
2017-09-08T01:33:51.380Z,66.70
2017-09-08T01:36:18.004Z,66.70
2017-09-08T01:38:44.669Z,66.70
2017-09-08T01:41:11.304Z,66.70
2017-09-08T01:43:37.932Z,66.70
2017-09-08T01:46:04.583Z,66.70
2017-09-08T01:48:31.884Z,66.70
2017-09-08T01:50:58.527Z,66.70
2017-09-08T01:53:25.155Z,66.60
2017-09-08T01:55:51.802Z,66.70
2017-09-08T01:58:18.423Z,66.80
2017-09-08T02:00:45.087Z,66.70
2017-09-08T02:03:11.935Z,66.80
2017-09-08T02:05:38.571Z,66.80
2017-09-08T02:08:05.216Z,66.80
2017-09-08T02:10:31.839Z,66.80
2017-09-08T02:12:59.156Z,66.70
2017-09-08T02:15:25.788Z,66.70
2017-09-08T02:17:52.436Z,66.70
2017-09-08T02:20:19.059Z,66.70
2017-09-08T02:22:45.716Z,66.70
2017-09-08T02:25:12.340Z,66.80
2017-09-08T02:27:38.992Z,66.80
2017-09-08T02:30:05.616Z,66.80
2017-09-08T02:32:32.308Z,66.80
2017-09-08T02:34:58.944Z,66.70
2017-09-08T02:37:25.572Z,66.70
2017-09-08T02:39:52.220Z,66.80
2017-09-08T02:44:58.245Z,66.70
2017-09-08T02:47:24.891Z,66.70
2017-09-08T02:49:51.539Z,66.70
2017-09-08T02:52:18.163Z,66.70
2017-09-08T02:54:44.816Z,66.80
2017-09-08T02:57:11.444Z,66.90
2017-09-08T02:59:38.112Z,66.80
2017-09-08T03:02:04.732Z,66.80
2017-09-08T03:04:31.360Z,66.80
2017-09-08T03:06:58.007Z,66.70
2017-09-08T03:09:24.651Z,66.70
2017-09-08T03:14:39.970Z,66.70
2017-09-08T03:17:06.623Z,66.80
2017-09-08T03:19:33.247Z,66.80
2017-09-08T03:21:59.892Z,66.80
2017-09-08T03:24:26.514Z,66.80
2017-09-08T03:26:53.167Z,66.80
2017-09-08T03:29:19.800Z,66.80
2017-09-08T03:31:46.431Z,66.80
2017-09-08T03:34:13.091Z,66.80
2017-09-08T03:36:39.736Z,66.80
2017-09-08T03:39:06.647Z,66.80
2017-09-08T03:44:22.564Z,66.70
2017-09-08T03:46:49.189Z,66.80
2017-09-08T03:49:15.836Z,66.80
2017-09-08T03:51:42.481Z,66.90
2017-09-08T03:54:09.161Z,66.80
2017-09-08T03:56:35.783Z,66.80
2017-09-08T03:59:02.414Z,66.80
2017-09-08T04:01:29.055Z,66.80
2017-09-08T04:03:55.680Z,66.80
2017-09-08T04:06:22.368Z,66.90
2017-09-08T04:08:48.989Z,66.90
2017-09-08T04:11:15.644Z,66.80
2017-09-08T04:13:42.275Z,66.80
2017-09-08T04:16:08.920Z,66.80
2017-09-08T04:18:35.552Z,66.90
2017-09-08T04:21:02.221Z,66.90
2017-09-08T04:23:28.844Z,66.90
2017-09-08T04:25:55.471Z,66.80
2017-09-08T04:28:22.128Z,66.80
2017-09-08T04:30:48.763Z,66.80
2017-09-08T04:33:15.407Z,66.90
2017-09-08T04:35:42.059Z,66.90
2017-09-08T04:38:09.549Z,66.90
2017-09-08T04:40:36.190Z,66.80
2017-09-08T04:43:02.863Z,66.80
2017-09-08T04:45:29.487Z,66.80
2017-09-08T04:47:56.153Z,66.90
2017-09-08T04:50:22.779Z,66.90
2017-09-08T04:52:49.412Z,66.90
2017-09-08T04:55:16.083Z,66.90
2017-09-08T04:57:42.703Z,66.90
2017-09-08T05:00:09.347Z,66.90
2017-09-08T05:02:35.967Z,66.90
2017-09-08T05:05:02.622Z,66.90
2017-09-08T05:07:29.248Z,66.80
2017-09-08T05:09:55.891Z,66.90
2017-09-08T05:15:01.035Z,67.10
2017-09-08T05:17:27.667Z,66.90
2017-09-08T05:19:54.300Z,66.90
2017-09-08T05:22:20.952Z,66.90
2017-09-08T05:24:47.626Z,66.90
2017-09-08T05:27:14.279Z,66.90
2017-09-08T05:29:40.903Z,67.00
2017-09-08T05:32:07.559Z,67.00
2017-09-08T05:34:34.192Z,67.00
2017-09-08T05:37:00.844Z,67.00
2017-09-08T05:39:28.008Z,67.00
2017-09-08T05:44:43.544Z,66.90
2017-09-08T05:47:10.176Z,66.90
2017-09-08T05:49:36.836Z,66.90
2017-09-08T05:52:03.464Z,66.90
2017-09-08T05:54:30.112Z,67.00
2017-09-08T05:56:56.743Z,67.00
2017-09-08T05:59:23.383Z,66.90
2017-09-08T06:01:50.012Z,67.00
2017-09-08T06:04:16.687Z,67.10
2017-09-08T06:06:43.307Z,67.00
2017-09-08T06:09:09.937Z,67.00
2017-09-08T06:14:25.413Z,66.80
2017-09-08T06:16:52.083Z,67.00
2017-09-08T06:19:18.703Z,67.00
2017-09-08T06:21:45.348Z,67.10
2017-09-08T06:24:11.976Z,67.10
2017-09-08T06:26:38.635Z,67.10
2017-09-08T06:29:05.259Z,67.00
2017-09-08T06:31:31.927Z,67.10
2017-09-08T06:33:58.555Z,67.10
2017-09-08T06:36:25.187Z,67.10
2017-09-08T06:38:51.839Z,67.00
2017-09-08T06:41:18.467Z,67.00
2017-09-08T06:43:45.125Z,66.80
2017-09-08T06:46:11.763Z,66.90
2017-09-08T06:48:38.422Z,67.00
2017-09-08T06:51:05.051Z,67.10
2017-09-08T06:53:31.750Z,67.00
2017-09-08T06:55:58.999Z,67.00
2017-09-08T06:58:25.624Z,67.00
2017-09-08T07:00:52.308Z,67.10
2017-09-08T07:03:18.931Z,67.10
2017-09-08T07:05:45.572Z,67.10
2017-09-08T07:08:12.200Z,67.10
2017-09-08T07:10:38.875Z,67.10
2017-09-08T07:13:05.530Z,67.10
2017-09-08T07:15:32.190Z,67.10
2017-09-08T07:17:58.814Z,67.10
2017-09-08T07:20:25.483Z,67.10
2017-09-08T07:22:52.123Z,67.10
2017-09-08T07:25:19.320Z,67.10
2017-09-08T07:27:45.991Z,67.10
2017-09-08T07:30:12.627Z,67.10
2017-09-08T07:32:39.271Z,67.10
2017-09-08T07:35:05.894Z,67.10
2017-09-08T07:37:32.550Z,67.10
2017-09-08T07:39:59.170Z,67.10
2017-09-08T07:42:25.808Z,67.10
2017-09-08T07:44:52.450Z,67.20
2017-09-08T07:47:19.079Z,67.20
2017-09-08T07:49:45.759Z,67.20
2017-09-08T07:52:12.400Z,67.20
2017-09-08T07:54:39.046Z,67.20
2017-09-08T07:57:05.699Z,67.20
2017-09-08T07:59:32.366Z,67.20
2017-09-08T08:01:58.999Z,67.20
2017-09-08T08:04:25.615Z,67.20
2017-09-08T08:06:52.271Z,67.20
2017-09-08T08:09:18.896Z,67.20
2017-09-08T08:11:45.543Z,67.20
2017-09-08T08:14:12.168Z,67.30
2017-09-08T08:16:38.848Z,67.30
2017-09-08T08:19:05.467Z,67.30
2017-09-08T08:21:32.091Z,67.30
2017-09-08T08:23:58.755Z,67.30
2017-09-08T08:26:25.395Z,67.30
2017-09-08T08:28:52.042Z,67.30
2017-09-08T08:31:18.672Z,67.30
2017-09-08T08:33:45.311Z,67.30
2017-09-08T08:36:11.939Z,67.30
2017-09-08T08:38:38.623Z,67.40
2017-09-08T08:41:05.251Z,67.40
2017-09-08T08:43:31.879Z,67.40
2017-09-08T08:45:58.519Z,67.50
2017-09-08T08:48:25.143Z,67.50
2017-09-08T08:50:51.787Z,67.50
2017-09-08T08:53:18.407Z,67.50
2017-09-08T08:55:45.055Z,67.50
2017-09-08T08:58:11.684Z,67.50
2017-09-08T09:00:38.303Z,67.50
2017-09-08T09:03:04.960Z,67.60
2017-09-08T09:05:31.593Z,67.80
2017-09-08T09:07:58.239Z,67.70
2017-09-08T09:10:24.859Z,67.60
2017-09-08T09:12:51.510Z,67.60
2017-09-08T09:15:18.654Z,67.70
2017-09-08T09:17:45.327Z,67.70
2017-09-08T09:20:12.216Z,67.70
2017-09-08T09:22:38.846Z,67.70
2017-09-08T09:25:05.491Z,67.70
2017-09-08T09:27:32.136Z,67.70
2017-09-08T09:29:58.779Z,67.70
2017-09-08T09:32:25.399Z,67.70
2017-09-08T09:34:52.055Z,67.70
2017-09-08T09:37:18.679Z,67.70
2017-09-08T09:39:45.353Z,67.70
2017-09-08T09:42:11.975Z,67.70
2017-09-08T09:44:38.599Z,67.80
2017-09-08T09:47:05.252Z,67.80
2017-09-08T09:49:31.899Z,67.80
2017-09-08T09:51:58.543Z,67.80
2017-09-08T09:54:25.164Z,67.80
2017-09-08T09:56:51.840Z,67.80
2017-09-08T09:59:18.463Z,67.80
2017-09-08T10:01:45.137Z,67.80
2017-09-08T10:04:11.783Z,67.80
2017-09-08T10:06:38.408Z,67.90
2017-09-08T10:09:05.053Z,67.90
2017-09-08T10:11:31.695Z,67.90
2017-09-08T10:13:58.368Z,67.90
2017-09-08T10:16:24.999Z,67.90
2017-09-08T10:18:51.647Z,68.00
2017-09-08T10:21:18.275Z,68.10
2017-09-08T10:23:44.923Z,68.10
2017-09-08T10:26:11.555Z,68.20
2017-09-08T10:28:38.190Z,68.30
2017-09-08T10:31:04.835Z,68.20
2017-09-08T10:33:31.450Z,68.20
2017-09-08T10:35:58.096Z,68.20
2017-09-08T10:38:24.727Z,68.30
2017-09-08T10:40:51.377Z,68.30
2017-09-08T10:43:18.004Z,68.30
2017-09-08T10:45:44.684Z,68.30
2017-09-08T10:48:11.299Z,68.30
2017-09-08T10:50:37.920Z,68.40
2017-09-08T10:53:04.563Z,68.30
2017-09-08T10:55:31.211Z,68.40
2017-09-08T10:57:57.915Z,68.30
2017-09-08T11:00:24.568Z,68.30
2017-09-08T11:02:51.212Z,68.50
2017-09-08T11:05:17.838Z,68.30
2017-09-08T11:07:44.508Z,68.40
2017-09-08T11:10:11.156Z,68.30
2017-09-08T11:12:37.788Z,68.40
2017-09-08T11:15:04.432Z,68.40
2017-09-08T11:17:31.119Z,68.40
2017-09-08T11:19:57.767Z,68.40
2017-09-08T11:22:24.406Z,68.40
2017-09-08T11:24:51.043Z,68.40
2017-09-08T11:27:17.667Z,68.50
2017-09-08T11:29:44.292Z,68.60
2017-09-08T11:32:10.951Z,68.50
2017-09-08T11:34:43.271Z,68.60
2017-09-08T11:37:10.311Z,68.70
2017-09-08T11:39:36.951Z,68.80
2017-09-08T11:44:52.908Z,68.70
2017-09-08T11:47:19.560Z,69.00
2017-09-08T11:49:46.183Z,69.20
2017-09-08T11:52:12.835Z,69.10
2017-09-08T11:54:39.464Z,69.10
2017-09-08T11:57:06.088Z,68.90
2017-09-08T11:59:32.740Z,69.10
2017-09-08T12:01:59.359Z,69.50
2017-09-08T12:04:26.006Z,69.30
2017-09-08T12:06:52.672Z,69.50
2017-09-08T12:09:19.339Z,69.20
2017-09-08T12:11:45.963Z,69.50
2017-09-08T12:14:12.583Z,69.60
2017-09-08T12:16:39.227Z,69.60
2017-09-08T12:19:05.842Z,69.60
2017-09-08T12:21:32.495Z,69.70
2017-09-08T12:23:59.120Z,69.60
2017-09-08T12:26:25.742Z,69.50
2017-09-08T12:28:52.391Z,69.40
2017-09-08T12:31:19.017Z,69.40
2017-09-08T12:33:45.665Z,69.40
2017-09-08T12:36:12.331Z,69.70
2017-09-08T12:38:38.988Z,69.80
2017-09-08T12:41:05.611Z,69.60
2017-09-08T12:43:32.791Z,69.50
2017-09-08T12:45:59.439Z,69.40
2017-09-08T12:48:26.092Z,70.10
2017-09-08T12:50:52.739Z,69.80
2017-09-08T12:53:19.369Z,69.70
2017-09-08T12:55:46.040Z,69.90
2017-09-08T12:58:12.760Z,69.70
2017-09-08T13:00:39.388Z,70.00
2017-09-08T13:03:06.035Z,69.80
2017-09-08T13:05:32.658Z,69.70
2017-09-08T13:07:59.331Z,69.90
2017-09-08T13:10:25.950Z,70.10
2017-09-08T13:12:52.595Z,70.00
2017-09-08T13:15:19.227Z,70.00
2017-09-08T13:17:46.036Z,69.90
2017-09-08T13:20:13.563Z,70.10
2017-09-08T13:22:40.211Z,70.00
2017-09-08T13:25:06.855Z,70.20
2017-09-08T13:27:33.475Z,70.10
2017-09-08T13:30:00.128Z,70.10
2017-09-08T13:32:26.764Z,70.40
2017-09-08T13:34:53.983Z,70.30
2017-09-08T13:37:20.611Z,70.10
2017-09-08T13:39:47.231Z,70.00
2017-09-08T13:45:02.868Z,70.40
2017-09-08T13:47:30.080Z,70.40
2017-09-08T13:49:56.704Z,70.40
2017-09-08T13:52:23.346Z,70.50
2017-09-08T13:54:50.508Z,70.60
2017-09-08T13:57:17.184Z,70.40
2017-09-08T13:59:43.813Z,70.30
2017-09-08T14:02:10.434Z,70.90
2017-09-08T14:04:37.080Z,70.70
2017-09-08T14:07:03.754Z,70.60
2017-09-08T14:09:30.390Z,70.40
2017-09-08T14:14:45.622Z,70.60
2017-09-08T14:17:12.252Z,70.60
2017-09-08T14:19:38.919Z,70.40
2017-09-08T14:22:05.552Z,70.50
2017-09-08T14:24:32.174Z,70.60
2017-09-08T14:26:58.835Z,70.50
2017-09-08T14:29:25.460Z,70.50
2017-09-08T14:31:52.113Z,70.40
2017-09-08T14:34:18.745Z,70.80
2017-09-08T14:36:45.390Z,70.80
2017-09-08T14:39:12.013Z,70.70
2017-09-08T14:44:29.715Z,70.60
2017-09-08T14:46:56.347Z,70.60
2017-09-08T14:49:22.999Z,70.70
2017-09-08T14:51:49.624Z,70.70
2017-09-08T14:54:16.264Z,70.60
2017-09-08T14:56:42.890Z,70.70
2017-09-08T14:59:09.560Z,70.60
2017-09-08T15:01:36.180Z,70.80
2017-09-08T15:04:02.811Z,70.70
2017-09-08T15:06:29.460Z,70.60
2017-09-08T15:08:56.095Z,70.70
2017-09-08T15:11:22.759Z,70.70
2017-09-08T15:13:49.396Z,70.60
2017-09-08T15:16:16.063Z,70.70
2017-09-08T15:18:43.088Z,70.70
2017-09-08T15:21:09.740Z,70.70
2017-09-08T15:23:36.383Z,70.70
2017-09-08T15:26:03.007Z,70.90
2017-09-08T15:28:29.658Z,71.20
2017-09-08T15:30:56.290Z,71.10
2017-09-08T15:33:22.938Z,71.00
2017-09-08T15:35:49.581Z,70.80
2017-09-08T15:38:16.251Z,70.90
2017-09-08T15:40:42.880Z,71.10
2017-09-08T15:43:09.512Z,71.00
2017-09-08T15:45:36.159Z,71.00
2017-09-08T15:48:02.797Z,71.00
2017-09-08T15:50:29.446Z,71.10
2017-09-08T15:52:56.067Z,71.10
2017-09-08T15:55:22.715Z,71.20
2017-09-08T15:57:49.336Z,71.10
2017-09-08T16:00:16.001Z,70.90
2017-09-08T16:02:42.632Z,71.00
2017-09-08T16:05:09.255Z,71.60
2017-09-08T16:07:36.124Z,71.50
2017-09-08T16:10:02.748Z,71.50
2017-09-08T16:15:13.452Z,71.40
2017-09-08T16:17:40.108Z,71.20
2017-09-08T16:20:06.736Z,71.30
2017-09-08T16:22:33.391Z,71.50
2017-09-08T16:25:00.024Z,71.70
2017-09-08T16:27:26.653Z,71.40
2017-09-08T16:29:53.295Z,71.50
2017-09-08T16:32:19.920Z,71.40
2017-09-08T16:34:46.964Z,71.40
2017-09-08T16:37:13.587Z,71.40
2017-09-08T16:39:40.264Z,71.50
2017-09-08T16:44:55.571Z,71.50
2017-09-08T16:47:22.194Z,71.50
2017-09-08T16:49:48.847Z,71.40
2017-09-08T16:52:15.503Z,71.50
2017-09-08T16:54:42.327Z,71.50
2017-09-08T16:57:09.004Z,71.70
2017-09-08T16:59:35.627Z,71.90
2017-09-08T17:02:02.253Z,71.50
2017-09-08T17:04:28.895Z,71.70
2017-09-08T17:06:55.522Z,71.60
2017-09-08T17:09:22.167Z,71.70
2017-09-08T17:14:49.567Z,71.50
2017-09-08T17:17:16.191Z,71.80
2017-09-08T17:19:42.872Z,71.60
2017-09-08T17:22:09.504Z,71.70
2017-09-08T17:24:36.148Z,71.70
2017-09-08T17:27:02.821Z,71.60
2017-09-08T17:29:29.447Z,71.70
2017-09-08T17:31:56.092Z,71.80
2017-09-08T17:34:22.733Z,71.90
2017-09-08T17:36:49.395Z,71.70
2017-09-08T17:39:16.031Z,71.60
2017-09-08T17:41:42.663Z,71.70
2017-09-08T17:44:09.311Z,71.70
2017-09-08T17:46:35.932Z,71.70
2017-09-08T17:49:02.576Z,71.70
2017-09-08T17:51:29.199Z,71.70
2017-09-08T17:53:55.826Z,71.80
2017-09-08T17:56:22.491Z,71.70
2017-09-08T17:58:49.124Z,71.70
2017-09-08T18:01:15.776Z,71.70
2017-09-08T18:03:42.411Z,71.80
2017-09-08T18:06:09.043Z,71.90
2017-09-08T18:08:35.687Z,72.00
2017-09-08T18:11:02.327Z,72.00
2017-09-08T18:13:29.003Z,71.80
2017-09-08T18:15:55.627Z,71.90
2017-09-08T18:18:22.656Z,72.00
2017-09-08T18:20:49.559Z,72.00
2017-09-08T18:23:16.193Z,71.80
2017-09-08T18:25:43.852Z,71.90
2017-09-08T18:28:10.492Z,71.80
2017-09-08T18:30:37.118Z,71.90
2017-09-08T18:33:03.772Z,71.90
2017-09-08T18:35:30.405Z,71.90
2017-09-08T18:37:57.059Z,72.00
2017-09-08T18:40:23.690Z,72.00
2017-09-08T18:42:50.410Z,72.00
2017-09-08T18:45:17.328Z,72.00
2017-09-08T18:47:43.962Z,71.90
2017-09-08T18:50:10.627Z,72.00
2017-09-08T18:52:37.648Z,72.00
2017-09-08T18:55:04.304Z,72.10
2017-09-08T18:57:30.931Z,72.00
2017-09-08T18:59:57.604Z,72.10
2017-09-08T19:02:24.235Z,71.90
2017-09-08T19:04:50.860Z,72.30
2017-09-08T19:07:17.548Z,71.90
2017-09-08T19:09:44.175Z,71.90
2017-09-08T19:15:01.087Z,72.00
2017-09-08T19:17:27.792Z,72.00
2017-09-08T19:19:54.446Z,72.00
2017-09-08T19:22:21.106Z,72.00
2017-09-08T19:24:47.783Z,71.90
2017-09-08T19:27:14.435Z,72.10
2017-09-08T19:29:41.130Z,72.00
2017-09-08T19:32:07.810Z,72.10
2017-09-08T19:34:34.453Z,72.10
2017-09-08T19:37:01.143Z,72.00
2017-09-08T19:39:27.804Z,72.10
2017-09-08T19:44:45.958Z,72.00
2017-09-08T19:47:12.631Z,72.00
2017-09-08T19:49:39.283Z,72.10
2017-09-08T19:52:05.970Z,72.00
2017-09-08T19:54:32.618Z,72.10
2017-09-08T19:56:59.272Z,72.00
2017-09-08T19:59:25.947Z,72.20
2017-09-08T20:01:52.594Z,72.20
2017-09-08T20:04:19.301Z,72.30
2017-09-08T20:06:45.955Z,72.30
2017-09-08T20:09:13.255Z,72.10
2017-09-08T20:11:39.930Z,72.20
2017-09-08T20:14:06.599Z,72.10
2017-09-08T20:16:33.295Z,72.20
2017-09-08T20:18:59.942Z,72.10
2017-09-08T20:21:26.610Z,72.20
2017-09-08T20:23:53.287Z,72.20
2017-09-08T20:26:19.947Z,72.20
2017-09-08T20:28:46.626Z,72.30
2017-09-08T20:31:13.295Z,72.30
2017-09-08T20:33:40.142Z,72.40
2017-09-08T20:36:06.783Z,72.30
2017-09-08T20:38:33.463Z,72.30
2017-09-08T20:41:00.135Z,72.10
2017-09-08T20:43:26.786Z,72.40
2017-09-08T20:45:53.465Z,72.20
2017-09-08T20:48:20.127Z,72.40
2017-09-08T20:50:46.818Z,72.40
2017-09-08T20:53:13.466Z,72.30
2017-09-08T20:55:40.121Z,72.30
2017-09-08T20:58:06.818Z,72.50
2017-09-08T21:00:33.582Z,72.50
2017-09-08T21:03:00.278Z,72.40
2017-09-08T21:05:26.947Z,72.30
2017-09-08T21:07:53.594Z,72.30
2017-09-08T21:10:20.262Z,72.40
2017-09-08T21:12:46.906Z,72.40
2017-09-08T21:15:13.576Z,72.40
2017-09-08T21:17:40.218Z,72.50
2017-09-08T21:20:06.919Z,72.30
2017-09-08T21:22:33.572Z,72.30
2017-09-08T21:25:00.227Z,72.40
2017-09-08T21:27:26.902Z,72.40
2017-09-08T21:29:53.611Z,72.50
2017-09-08T21:32:20.286Z,72.30
2017-09-08T21:34:46.950Z,72.40
2017-09-08T21:37:13.644Z,72.40
2017-09-08T21:39:40.305Z,72.40
2017-09-08T21:42:06.954Z,72.40
2017-09-08T21:44:33.623Z,72.40
2017-09-08T21:47:00.263Z,72.50
2017-09-08T21:49:26.938Z,72.40
2017-09-08T21:51:53.591Z,72.40
2017-09-08T21:54:20.283Z,72.50
2017-09-08T21:56:46.935Z,72.40
2017-09-08T21:59:13.586Z,72.50
2017-09-08T22:01:40.271Z,72.50
2017-09-08T22:04:06.915Z,72.60
2017-09-08T22:06:33.583Z,72.30
2017-09-08T22:09:00.231Z,72.60
2017-09-08T22:11:26.903Z,72.50
2017-09-08T22:13:53.567Z,72.30
2017-09-08T22:16:20.215Z,72.60
2017-09-08T22:18:46.890Z,72.50
2017-09-08T22:21:13.534Z,72.50
2017-09-08T22:23:40.235Z,72.60
2017-09-08T22:26:06.887Z,72.50
2017-09-08T22:28:33.571Z,72.60
2017-09-08T22:31:00.259Z,72.50
2017-09-08T22:33:26.904Z,72.50
2017-09-08T22:35:53.570Z,72.70
2017-09-08T22:38:20.223Z,72.70
2017-09-08T22:40:46.916Z,72.70
2017-09-08T22:43:13.566Z,72.60
2017-09-08T22:45:40.218Z,72.60
2017-09-08T22:48:06.899Z,72.70
2017-09-08T22:50:33.546Z,72.70
2017-09-08T22:53:00.218Z,72.70
2017-09-08T22:55:26.866Z,72.70
2017-09-08T22:57:53.555Z,72.60
2017-09-08T23:00:20.212Z,72.70
2017-09-08T23:02:46.896Z,72.70
2017-09-08T23:05:13.538Z,72.70
2017-09-08T23:07:40.199Z,72.80
2017-09-08T23:10:06.876Z,72.80
2017-09-08T23:12:33.535Z,73.00
2017-09-08T23:15:00.215Z,73.00
2017-09-08T23:17:26.866Z,73.00
2017-09-08T23:19:53.699Z,73.10
2017-09-08T23:22:20.342Z,72.90
2017-09-08T23:24:46.987Z,72.90
2017-09-08T23:27:13.659Z,72.90
2017-09-08T23:29:40.303Z,72.80
2017-09-08T23:32:06.979Z,72.90
2017-09-08T23:34:33.630Z,72.90
2017-09-08T23:37:00.327Z,72.90
2017-09-08T23:39:26.982Z,72.80
2017-09-08T23:44:42.567Z,72.80
2017-09-08T23:47:10.420Z,72.80
2017-09-08T23:49:43.179Z,72.80
2017-09-08T23:52:09.827Z,72.80
2017-09-08T23:54:36.503Z,72.80
2017-09-08T23:57:03.142Z,72.80
2017-09-08T23:59:29.790Z,72.90
